Kamen'-na-Obi, Russia
Current Conditions -  °F | °C
As of 12:30 PM on Tuesday 21 Oct 2014 (Local Time) from UNBB Reporting Station
Broken Clouds Broken Clouds  
Wind Chill: 26°   Ceiling: 20000
Heat Index: 37°   Visibility: 6mi
Dew Point: 27°   Wind: 22mph
Humidity: 65%   Direction: 240°WSW
Pressure: 29.83"   Gusts: NA
Location:  53.82°N, 81.27°E
Report Text: UNBB 210530Z 24010MPS 9999 SCT033 BKN200 03/M03 Q1010 NOSIG RMKQFE735/0980 24190059
Loading
Personal Weather Stations






























Interactive Weather Map New forecast layout! Learn more

10-Day Weather Forecast

Advertisements
Track Severe Weather on mobile